Time;durP1;ratioP1;P1;durP2;ratioP2;P2;SDS_P1;SDS_P2;PMS_P1;PMS_P2;Temp;Humidity;BMP_temperature;BMP_pressure;BME280_temperature;BME280_humidity;BME280_pressure;Samples;Min_cycle;Max_cycle;Signal;HPM_P1;HPM_P2
2021/04/12 00:01:05;;;;;;;10.63;7.55;;;;;;;5.25;90.05;99803.22;4995532;28;20222;-73
2021/04/12 00:03:35;;;;;;;9.60;8.27;;;;;;;5.29;90.44;99804.84;4995354;28;20179;-74
2021/04/12 00:06:09;;;;;;;8.93;7.97;;;;;;;5.26;91.29;99811.16;4995186;28;20243;-74
2021/04/12 00:08:43;;;;;;;10.55;8.82;;;;;;;5.32;91.02;99813.63;4994907;28;20280;-74
2021/04/12 00:11:22;;;;;;;9.25;7.30;;;;;;;5.30;91.56;99804.78;4994578;28;20636;-73
2021/04/12 00:13:53;;;;;;;9.93;7.63;;;;;;;5.21;91.94;99805.97;4995113;28;20183;-73
2021/04/12 00:16:26;;;;;;;9.27;8.00;;;;;;;5.40;91.47;99806.25;4994894;28;20187;-73
2021/04/12 00:18:56;;;;;;;11.05;8.70;;;;;;;5.29;91.84;99807.50;4994919;28;20191;-73
2021/04/12 00:21:29;;;;;;;11.60;8.50;;;;;;;5.27;91.08;99806.66;4994324;28;20280;-73
2021/04/12 00:24:03;;;;;;;8.48;7.60;;;;;;;5.17;92.39;99823.00;4995333;28;20190;-73
2021/04/12 00:26:34;;;;;;;9.80;8.02;;;;;;;5.25;91.93;99829.91;4995080;28;20328;-73
2021/04/12 00:29:05;;;;;;;9.35;8.45;;;;;;;5.27;92.71;99834.28;4994640;28;20225;-73
2021/04/12 00:31:37;;;;;;;10.18;8.80;;;;;;;5.33;92.29;99844.72;4994844;28;20538;-74
2021/04/12 00:34:11;;;;;;;10.18;8.82;;;;;;;5.40;92.05;99848.97;4994827;28;20687;-73
2021/04/12 00:36:46;;;;;;;9.70;8.70;;;;;;;5.32;91.50;99856.34;4994907;28;20195;-73
2021/04/12 00:39:19;;;;;;;16.40;8.90;;;;;;;5.18;92.74;99854.13;4994550;28;20291;-73
2021/04/12 00:42:19;;;;;;;9.05;7.88;;;;;;;5.22;93.16;99850.44;4994677;28;20212;-73
2021/04/12 00:45:13;;;;;;;10.73;8.35;;;;;;;5.25;93.21;99844.13;4992831;28;20310;-73
2021/04/12 00:47:49;;;;;;;10.38;8.75;;;;;;;5.33;92.92;99849.19;4961912;28;20567;-73
2021/04/12 00:50:40;;;;;;;10.98;9.52;;;;;;;5.33;93.29;99849.19;4994246;28;20186;-73
2021/04/12 00:53:27;;;;;;;10.70;8.98;;;;;;;5.31;93.36;99856.38;4993116;28;20247;-73
2021/04/12 00:55:57;;;;;;;12.48;8.95;;;;;;;5.23;93.60;99849.50;4994508;28;20275;-73
2021/04/12 00:58:35;;;;;;;13.25;10.18;;;;;;;5.21;93.31;99859.34;4994394;28;20195;-73
2021/04/12 01:01:14;;;;;;;11.20;9.27;;;;;;;5.11;94.17;99862.34;4994052;28;20194;-73
2021/04/12 01:04:04;;;;;;;11.68;9.73;;;;;;;5.13;94.54;99856.06;4993941;28;20284;-73
2021/04/12 01:06:47;;;;;;;12.90;10.20;;;;;;;5.12;94.66;99858.78;4994047;28;20219;-74
2021/04/12 01:09:35;;;;;;;17.65;10.70;;;;;;;5.15;95.21;99874.69;4994189;28;20273;-74
2021/04/12 01:12:34;;;;;;;12.30;10.40;;;;;;;5.07;95.40;99866.06;4993963;28;20643;-73
2021/04/12 01:15:10;;;;;;;13.65;10.15;;;;;;;5.09;95.64;99873.09;4951203;28;20676;-73
2021/04/12 01:18:03;;;;;;;13.13;10.18;;;;;;;5.02;96.05;99858.22;4993912;28;20309;-73
2021/04/12 01:20:54;;;;;;;13.57;9.90;;;;;;;5.03;94.56;99862.59;4993486;28;20194;-73
2021/04/12 01:23:57;;;;;;;11.93;9.90;;;;;;;5.02;94.58;99863.53;4993016;28;20238;-73
2021/04/12 01:27:05;;;;;;;11.40;10.25;;;;;;;5.05;93.87;99866.09;4994156;28;20205;-73
2021/04/12 01:30:12;;;;;;;13.75;9.40;;;;;;;4.96;94.75;99858.38;4993896;28;20232;-73
2021/04/12 01:33:14;;;;;;;13.55;9.40;;;;;;;5.01;93.30;99857.31;4993804;28;20282;-74
2021/04/12 01:36:20;;;;;;;11.18;8.40;;;;;;;4.92;93.33;99857.59;4993620;28;20190;-74
2021/04/12 01:38:56;;;;;;;10.85;9.73;;;;;;;4.79;93.38;99862.47;4993685;28;20203;-73
2021/04/12 01:41:32;;;;;;;10.50;8.73;;;;;;;4.72;93.46;99860.88;4993703;28;20192;-74
2021/04/12 01:44:23;;;;;;;10.80;8.68;;;;;;;4.88;92.92;99868.41;4993514;28;20610;-74
2021/04/12 01:46:58;;;;;;;10.52;8.40;;;;;;;4.74;92.31;99872.38;4993450;28;20257;-74
2021/04/12 01:49:40;;;;;;;8.52;7.60;;;;;;;4.74;92.03;99884.84;4993041;28;20210;-74
2021/04/12 01:52:20;;;;;;;10.43;8.50;;;;;;;4.66;92.08;99898.41;4993019;28;20192;-73
2021/04/12 01:54:57;;;;;;;8.43;7.00;;;;;;;4.75;91.94;99906.16;4992893;28;20194;-73
2021/04/12 01:57:37;;;;;;;10.38;7.60;;;;;;;4.70;91.37;99913.38;4993163;28;20193;-73
2021/04/12 02:03:32;;;;;;;9.65;7.90;;;;;;;4.74;90.30;99908.84;4992582;28;20230;-73
2021/04/12 02:06:13;;;;;;;8.27;7.40;;;;;;;4.71;89.66;99923.16;4993345;28;20207;-73
2021/04/12 02:08:50;;;;;;;8.60;7.38;;;;;;;4.67;89.68;99931.28;4992836;28;20183;-74
2021/04/12 02:11:43;;;;;;;8.57;7.55;;;;;;;4.57;90.73;99926.22;4992697;28;20194;-73
2021/04/12 02:14:38;;;;;;;10.93;7.95;;;;;;;4.56;89.75;99927.13;4991726;28;20207;-73
2021/04/12 02:17:12;;;;;;;11.65;7.60;;;;;;;4.57;89.28;99928.03;4980261;28;20211;-73
2021/04/12 02:19:57;;;;;;;10.20;6.82;;;;;;;4.54;89.58;99936.09;4992675;28;20219;-74
2021/04/12 02:23:07;;;;;;;9.40;7.28;;;;;;;4.57;89.63;99942.22;4992654;28;20234;-73
2021/04/12 02:25:53;;;;;;;8.35;7.07;;;;;;;4.60;89.68;99941.25;4992882;28;20296;-74
2021/04/12 02:28:35;;;;;;;7.85;7.13;;;;;;;4.67;88.99;99932.16;4992713;28;20585;-73
2021/04/12 02:31:21;;;;;;;9.05;7.38;;;;;;;4.65;88.77;99938.47;4992575;28;20188;-73
2021/04/12 02:33:55;;;;;;;10.45;7.45;;;;;;;4.59;88.61;99937.72;4992802;28;20637;-74
2021/04/12 02:36:33;;;;;;;9.18;7.70;;;;;;;4.63;89.29;99941.16;4992246;28;20276;-73
2021/04/12 02:39:05;;;;;;;12.15;7.97;;;;;;;4.64;89.26;99942.94;4992776;28;20192;-74
2021/04/12 02:41:56;;;;;;;8.60;7.70;;;;;;;4.46;89.78;99954.97;4992891;28;20198;-73
2021/04/12 02:44:34;;;;;;;8.98;7.45;;;;;;;4.53;90.06;99961.03;4992959;28;20970;-73
2021/04/12 02:47:21;;;;;;;9.93;8.13;;;;;;;4.49;89.80;99970.88;4992713;28;20638;-73
2021/04/12 02:49:56;;;;;;;8.25;7.32;;;;;;;4.43;90.04;99968.38;4992262;28;20233;-74
2021/04/12 02:52:36;;;;;;;9.77;7.75;;;;;;;4.39;89.98;99972.94;4992575;28;20541;-73
2021/04/12 02:55:25;;;;;;;10.48;8.25;;;;;;;4.48;90.03;99976.28;4992344;28;20223;-73
2021/04/12 02:58:28;;;;;;;9.10;7.95;;;;;;;4.49;89.79;99980.69;4992509;28;20274;-73
2021/04/12 03:01:20;;;;;;;9.00;7.30;;;;;;;4.39;90.01;99991.59;4992139;28;20223;-73
2021/04/12 03:03:54;;;;;;;13.65;7.88;;;;;;;4.45;89.17;99989.69;4992222;28;20276;-74
2021/04/12 03:06:54;;;;;;;9.15;7.57;;;;;;;4.34;89.17;99993.53;4992092;28;20294;-74
2021/04/12 03:10:01;;;;;;;9.65;7.53;;;;;;;4.44;89.27;99994.16;4991992;28;20275;-73
2021/04/12 03:12:51;;;;;;;10.60;7.85;;;;;;;4.43;89.01;99997.72;4992445;28;20296;-74
2021/04/12 03:15:57;;;;;;;8.85;7.95;;;;;;;4.41;88.95;99993.34;4992582;28;20274;-73
2021/04/12 03:18:57;;;;;;;11.48;9.07;;;;;;;4.50;88.68;100001.09;4991950;28;20223;-73
2021/04/12 03:21:59;;;;;;;9.93;8.93;;;;;;;4.46;90.06;100004.78;4992178;28;20208;-73
2021/04/12 03:24:29;;;;;;;11.90;8.35;;;;;;;4.47;89.47;100001.19;4981106;28;20249;-73
2021/04/12 03:27:27;;;;;;;11.40;9.32;;;;;;;4.37;90.08;100000.56;4992099;28;20299;-74
2021/04/12 03:30:08;;;;;;;10.10;8.60;;;;;;;4.48;89.88;100008.28;4992423;28;20556;-74
2021/04/12 03:32:51;;;;;;;12.15;8.90;;;;;;;4.49;89.67;100007.34;4991953;28;20282;-75
2021/04/12 03:35:24;;;;;;;10.35;9.07;;;;;;;4.64;89.07;100016.75;4991844;28;20194;-73
2021/04/12 03:38:07;;;;;;;8.93;8.00;;;;;;;4.56;88.72;100015.13;4991863;28;20228;-73
2021/04/12 03:40:37;;;;;;;12.70;8.02;;;;;;;4.38;89.70;100023.63;4992300;28;20249;-73
2021/04/12 03:43:28;;;;;;;9.43;8.15;;;;;;;4.27;90.12;100023.03;4991801;28;20215;-73
2021/04/12 03:46:23;;;;;;;11.00;8.60;;;;;;;4.27;91.00;100033.69;4991914;28;20246;-74
2021/04/12 03:49:07;;;;;;;11.98;9.13;;;;;;;4.18;91.85;100035.69;4995698;28;20192;-73
2021/04/12 03:52:14;;;;;;;11.23;9.45;;;;;;;4.24;91.55;100036.44;4995751;28;20192;-73
2021/04/12 03:54:52;;;;;;;14.18;9.98;;;;;;;4.04;92.32;100036.94;4960224;28;20215;-73
2021/04/12 03:57:55;;;;;;;12.00;10.27;;;;;;;4.02;93.00;100039.63;4995550;28;20188;-73
2021/04/12 04:01:08;;;;;;;12.93;10.85;;;;;;;4.13;92.33;100042.91;4964750;28;20208;-73
2021/04/12 04:04:01;;;;;;;13.98;10.82;;;;;;;4.05;92.91;100044.00;4985248;28;20534;-73
2021/04/12 04:07:00;;;;;;;11.90;10.27;;;;;;;4.06;92.54;100041.31;4995686;28;20234;-73
2021/04/12 04:09:48;;;;;;;12.13;10.68;;;;;;;4.04;92.25;100048.47;4990556;28;20242;-73
2021/04/12 04:12:33;;;;;;;14.48;9.88;;;;;;;4.02;92.72;100054.75;4995460;28;21069;-73
2021/04/12 04:15:23;;;;;;;13.88;9.90;;;;;;;3.98;93.01;100053.97;4995556;28;20223;-73
2021/04/12 04:18:16;;;;;;;12.75;10.50;;;;;;;4.10;92.57;100060.78;4993090;28;20312;-72
2021/04/12 04:21:18;;;;;;;18.88;11.90;;;;;;;4.10;92.32;100058.09;4995567;28;20188;-74
2021/04/12 04:24:05;;;;;;;14.32;10.82;;;;;;;4.04;92.19;100066.25;4972650;28;20225;-73
2021/04/12 04:26:57;;;;;;;11.43;9.73;;;;;;;3.95;92.44;100070.00;4994708;28;20248;-73
2021/04/12 04:30:05;;;;;;;14.90;11.98;;;;;;;3.93;92.65;100067.41;4995093;28;20185;-73
2021/04/12 04:32:45;;;;;;;13.98;11.32;;;;;;;3.94;93.02;100071.78;4995166;28;20329;-74
2021/04/12 04:35:43;;;;;;;14.40;10.27;;;;;;;3.94;93.54;100070.94;4994552;28;20184;-73
2021/04/12 04:38:45;;;;;;;17.52;11.70;;;;;;;4.17;92.41;100083.69;4994335;28;20200;-73
2021/04/12 04:41:31;;;;;;;15.65;11.43;;;;;;;4.03;93.09;100084.03;4994705;28;20677;-73
2021/04/12 04:44:34;;;;;;;15.60;11.40;;;;;;;3.88;92.97;100073.72;4994381;28;20623;-73
2021/04/12 04:47:21;;;;;;;18.23;12.15;;;;;;;3.88;93.11;100089.72;4994505;28;20221;-73
2021/04/12 04:50:09;;;;;;;13.65;11.25;;;;;;;3.85;92.71;100096.00;4994363;28;20215;-73
2021/04/12 04:52:50;;;;;;;21.98;11.98;;;;;;;3.74;93.46;100100.69;4994465;28;20201;-73
2021/04/12 04:55:30;;;;;;;17.15;11.40;;;;;;;3.74;93.87;100101.56;4994652;28;20183;-73
2021/04/12 04:58:08;;;;;;;16.75;12.13;;;;;;;3.70;94.58;100105.19;4994414;28;20639;-73
2021/04/12 05:00:51;;;;;;;16.10;13.38;;;;;;;3.78;94.48;100110.38;4994336;28;20275;-72
2021/04/12 05:03:51;;;;;;;16.88;12.38;;;;;;;3.82;93.35;100106.72;4994329;28;20608;-73
2021/04/12 05:07:05;;;;;;;16.15;12.45;;;;;;;3.72;93.85;100110.50;4994114;28;20728;-73
2021/04/12 05:09:50;;;;;;;13.48;11.65;;;;;;;3.73;94.10;100117.56;4994393;28;20618;-73
2021/04/12 05:12:43;;;;;;;16.85;12.57;;;;;;;3.67;94.42;100128.38;4994324;28;20196;-73
2021/04/12 05:15:26;;;;;;;17.65;13.50;;;;;;;3.65;94.61;100128.38;4993768;28;20187;-73
2021/04/12 05:18:09;;;;;;;16.83;12.48;;;;;;;3.53;94.93;100140.19;4994161;28;20566;-73
2021/04/12 05:20:45;;;;;;;18.65;13.07;;;;;;;3.60;95.02;100137.41;4994018;28;20649;-74
2021/04/12 05:23:38;;;;;;;15.18;12.20;;;;;;;3.51;95.11;100149.97;4993446;28;20663;-74
2021/04/12 05:26:23;;;;;;;15.02;12.13;;;;;;;3.55;94.93;100151.69;4991900;28;20221;-74
2021/04/12 05:29:25;;;;;;;15.13;11.60;;;;;;;3.70;93.01;100161.13;4993192;28;20551;-74
2021/04/12 05:32:20;;;;;;;15.07;10.70;;;;;;;3.52;93.32;100164.16;4983711;28;20212;-73
2021/04/12 05:35:04;;;;;;;18.05;12.27;;;;;;;3.56;93.34;100173.84;4971521;28;20215;-72
2021/04/12 05:38:01;;;;;;;14.00;11.02;;;;;;;3.48;93.14;100186.44;4991891;28;20206;-73
2021/04/12 05:40:46;;;;;;;13.82;11.60;;;;;;;3.42;93.05;100190.09;4989137;28;20616;-74
2021/04/12 05:43:27;;;;;;;16.42;11.27;;;;;;;3.43;93.15;100194.50;4990013;28;20184;-74
2021/04/12 05:46:17;;;;;;;17.08;12.10;;;;;;;3.42;93.20;100191.91;4989569;28;20235;-72
2021/04/12 05:49:20;;;;;;;19.73;12.13;;;;;;;3.53;92.65;100200.56;4990893;28;20248;-73
2021/04/12 05:52:02;;;;;;;16.95;11.70;;;;;;;3.41;92.92;100196.31;4969569;28;20581;-73
2021/04/12 05:54:56;;;;;;;15.60;11.55;;;;;;;3.39;92.62;100205.25;4989508;28;20206;-72
2021/04/12 05:57:52;;;;;;;16.10;12.60;;;;;;;3.32;93.07;100204.47;4968800;28;20199;-73
2021/04/12 06:00:29;;;;;;;17.48;13.13;;;;;;;3.45;93.04;100213.13;4991342;28;20266;-72
2021/04/12 06:03:07;;;;;;;16.73;12.13;;;;;;;3.36;92.45;100207.97;4992150;28;20189;-72
2021/04/12 06:05:41;;;;;;;17.38;11.95;;;;;;;3.34;92.53;100218.66;4992545;28;20293;-73
2021/04/12 06:08:37;;;;;;;16.45;12.38;;;;;;;3.54;91.49;100229.78;4990268;28;20278;-73
2021/04/12 06:11:40;;;;;;;14.38;11.63;;;;;;;3.46;92.34;100231.75;4989135;28;20196;-73
2021/04/12 06:14:29;;;;;;;15.13;10.50;;;;;;;3.60;91.77;100241.25;4990121;28;20677;-73
2021/04/12 06:17:29;;;;;;;17.40;12.05;;;;;;;3.68;90.91;100236.63;4988676;28;20287;-73
2021/04/12 06:20:31;;;;;;;14.90;10.75;;;;;;;3.72;89.46;100244.53;4990763;28;20557;-72
2021/04/12 06:23:28;;;;;;;14.13;10.35;;;;;;;3.42;90.57;100246.00;4988542;28;20236;-73
2021/04/12 06:26:39;;;;;;;14.00;11.80;;;;;;;3.44;90.28;100246.00;4989080;28;20209;-73
2021/04/12 06:29:33;;;;;;;13.35;11.18;;;;;;;3.47;90.43;100253.91;4990524;28;20202;-73
2021/04/12 06:32:35;;;;;;;12.30;10.70;;;;;;;3.65;89.84;100247.38;4987585;28;20196;-73
2021/04/12 06:35:28;;;;;;;13.73;10.10;;;;;;;3.90;88.42;100263.72;4990035;28;20246;-73
2021/04/12 06:38:24;;;;;;;12.80;10.50;;;;;;;4.24;85.66;100261.22;4990530;28;20282;-73
2021/04/12 06:41:33;;;;;;;13.88;9.90;;;;;;;4.41;84.25;100267.97;4992172;28;20292;-72
2021/04/12 06:44:40;;;;;;;10.80;9.50;;;;;;;4.17;84.27;100276.47;4992556;28;20234;-71
2021/04/12 06:47:36;;;;;;;11.60;9.38;;;;;;;3.95;85.53;100277.84;4987442;28;20720;-71
2021/04/12 06:50:47;;;;;;;15.90;10.60;;;;;;;3.94;85.06;100284.97;4990148;28;20733;-72
2021/04/12 06:53:46;;;;;;;14.82;10.27;;;;;;;4.12;85.10;100289.03;4992356;28;21005;-73
2021/04/12 06:56:45;;;;;;;13.52;10.35;;;;;;;4.18;84.76;100280.03;4992650;28;20242;-73
2021/04/12 06:59:55;;;;;;;16.38;10.15;;;;;;;4.31;84.48;100280.66;4968946;28;20318;-71
2021/04/12 07:03:06;;;;;;;10.70;9.30;;;;;;;4.38;83.89;100276.94;4992751;28;20587;-72
2021/04/12 07:06:09;;;;;;;10.95;9.50;;;;;;;4.38;83.23;100284.94;4992720;28;20693;-72
2021/04/12 07:09:10;;;;;;;11.05;8.57;;;;;;;4.53;81.13;100292.59;4992602;28;20282;-73
2021/04/12 07:12:01;;;;;;;13.45;9.20;;;;;;;4.45;81.32;100296.34;4970235;28;20337;-73
2021/04/12 07:15:15;;;;;;;12.23;8.50;;;;;;;4.60;81.36;100293.34;4992481;28;20190;-73
2021/04/12 07:18:19;;;;;;;13.30;8.55;;;;;;;4.72;79.75;100297.50;4992585;28;20246;-72
2021/04/12 07:21:15;;;;;;;8.77;7.88;;;;;;;4.96;78.98;100306.75;4992125;28;20189;-72
2021/04/12 07:24:16;;;;;;;8.23;7.10;;;;;;;5.05;76.95;100301.19;4996072;28;20682;-72
2021/04/12 07:27:36;;;;;;;9.95;7.57;;;;;;;5.23;75.97;100300.72;4995778;28;20207;-73
2021/04/12 07:30:32;;;;;;;6.88;6.18;;;;;;;5.31;74.97;100307.66;4976341;28;20194;-72
2021/04/12 07:33:11;;;;;;;9.48;6.70;;;;;;;5.32;74.94;100314.78;4975804;28;20225;-74
2021/04/12 07:36:21;;;;;;;8.82;6.93;;;;;;;5.24;72.79;100314.94;4976459;28;20190;-73
2021/04/12 07:39:30;;;;;;;6.40;5.80;;;;;;;5.08;73.47;100319.78;4976128;28;20192;-72
2021/04/12 07:42:29;;;;;;;8.88;5.97;;;;;;;5.39;72.21;100316.38;4974632;28;20213;-72
2021/04/12 07:45:53;;;;;;;7.53;6.68;;;;;;;5.43;72.16;100320.72;4975976;28;20211;-73
2021/04/12 07:49:05;;;;;;;8.27;6.60;;;;;;;5.66;70.72;100324.59;4966799;28;20217;-72
2021/04/12 07:52:04;;;;;;;7.93;6.30;;;;;;;5.61;69.46;100328.25;4976072;28;20209;-71
2021/04/12 07:54:51;;;;;;;8.20;7.15;;;;;;;6.08;69.21;100329.69;4975845;28;20270;-71
2021/04/12 07:57:44;;;;;;;7.15;5.85;;;;;;;6.58;67.59;100330.03;4975893;28;20621;-73
2021/04/12 08:00:56;;;;;;;5.45;4.75;;;;;;;6.92;63.59;100337.91;4975729;28;20613;-72
2021/04/12 08:03:58;;;;;;;6.53;5.45;;;;;;;6.78;63.89;100342.81;4975159;28;20187;-72
2021/04/12 08:06:58;;;;;;;14.57;5.68;;;;;;;6.39;63.36;100343.94;4975808;28;20682;-73
2021/04/12 08:09:42;;;;;;;7.78;4.82;;;;;;;5.99;65.80;100339.75;4958802;28;20766;-72
2021/04/12 08:12:41;;;;;;;6.65;5.65;;;;;;;6.12;66.34;100345.63;4975538;28;20191;-72
2021/04/12 08:15:43;;;;;;;5.97;5.15;;;;;;;6.43;64.35;100345.63;4976113;28;20228;-72
2021/04/12 08:18:30;;;;;;;7.38;6.03;;;;;;;6.82;63.43;100352.50;4971726;28;20293;-71
2021/04/12 08:21:26;;;;;;;6.38;5.50;;;;;;;6.80;62.75;100360.56;4975414;28;20199;-72
2021/04/12 08:24:43;;;;;;;8.40;5.93;;;;;;;6.23;62.63;100354.22;4974947;28;20321;-71
2021/04/12 08:27:42;;;;;;;6.10;4.40;;;;;;;6.36;62.11;100356.56;4975337;28;20211;-72
2021/04/12 08:30:45;;;;;;;9.10;4.63;;;;;;;6.31;60.51;100362.03;4958783;28;20297;-71
2021/04/12 08:33:58;;;;;;;4.35;3.85;;;;;;;6.66;56.77;100357.44;4973009;28;20288;-72
2021/04/12 08:37:24;;;;;;;3.92;2.70;;;;;;;7.14;53.76;100359.53;4965691;28;20291;-71
2021/04/12 08:40:20;;;;;;;4.03;3.40;;;;;;;7.68;53.24;100360.44;4896575;29;20304;-72
2021/04/12 08:43:09;;;;;;;4.30;3.53;;;;;;;7.82;53.75;100360.81;4973021;28;20207;-72
2021/04/12 08:46:04;;;;;;;6.60;3.70;;;;;;;7.89;54.61;100377.56;4975139;28;20239;-72
2021/04/12 08:49:05;;;;;;;4.65;3.88;;;;;;;7.75;53.83;100367.34;4974711;28;20189;-73
2021/04/12 08:52:08;;;;;;;4.15;3.22;;;;;;;7.69;53.85;100368.44;4975325;28;20923;-72
2021/04/12 08:55:21;;;;;;;3.97;3.10;;;;;;;7.30;51.30;100375.97;4975098;28;20288;-73
2021/04/12 08:58:12;;;;;;;6.72;4.65;;;;;;;8.19;49.93;100377.47;4974339;28;20434;-71
2021/04/12 09:01:25;;;;;;;3.65;3.33;;;;;;;7.67;51.26;100370.28;4974976;28;20215;-72
2021/04/12 09:04:14;;;;;;;5.38;3.58;;;;;;;7.15;53.39;100385.41;4974542;28;20280;-72
2021/04/12 09:07:10;;;;;;;4.68;3.00;;;;;;;6.99;52.36;100384.13;4974225;28;20682;-72
2021/04/12 09:10:14;;;;;;;4.20;2.92;;;;;;;6.73;51.35;100383.09;4974135;28;20196;-73
2021/04/12 09:13:18;;;;;;;3.85;2.88;;;;;;;7.45;49.81;100385.34;4962064;28;20309;-71
2021/04/12 09:16:02;;;;;;;3.30;3.00;;;;;;;8.12;48.05;100396.44;4974387;28;20206;-71
2021/04/12 09:18:59;;;;;;;4.90;4.40;;;;;;;8.75;47.39;100396.88;4974716;28;20931;-73
2021/04/12 09:22:01;;;;;;;6.78;3.00;;;;;;;8.90;47.93;100394.50;4977649;28;20468;-71
2021/04/12 09:25:20;;;;;;;6.03;4.18;;;;;;;8.53;48.74;100404.84;5013144;28;20244;-72
2021/04/12 09:27:59;;;;;;;3.45;3.15;;;;;;;7.70;50.41;100402.34;4991430;28;20194;-70
2021/04/12 09:31:07;;;;;;;3.28;3.05;;;;;;;7.32;51.72;100401.78;5013145;28;20607;-72
2021/04/12 09:34:03;;;;;;;4.13;2.95;;;;;;;7.05;52.63;100403.53;5013420;28;20190;-73
2021/04/12 09:37:17;;;;;;;3.40;2.90;;;;;;;7.51;51.97;100394.03;5013089;28;20622;-73
2021/04/12 09:40:11;;;;;;;8.57;4.05;;;;;;;8.17;49.40;100401.66;5012666;28;20302;-73
2021/04/12 09:43:03;;;;;;;5.05;3.75;;;;;;;8.75;47.51;100395.97;5013125;28;20301;-72
2021/04/12 09:46:03;;;;;;;2.83;2.63;;;;;;;8.73;46.87;100406.78;5011850;28;20203;-72
2021/04/12 09:48:43;;;;;;;3.20;2.92;;;;;;;8.73;46.13;100405.91;5013053;28;20526;-72
2021/04/12 09:51:45;;;;;;;3.78;3.00;;;;;;;8.08;48.92;100410.88;5013156;28;20191;-71
2021/04/12 09:54:32;;;;;;;3.25;3.03;;;;;;;8.16;49.59;100407.91;5013173;28;20328;-72
2021/04/12 09:57:49;;;;;;;4.72;2.92;;;;;;;7.75;50.07;100412.03;5012775;28;20199;-72
2021/04/12 10:00:31;;;;;;;2.85;2.35;;;;;;;8.20;47.83;100419.44;5012862;28;20194;-72
2021/04/12 10:03:24;;;;;;;5.15;4.07;;;;;;;7.95;48.39;100417.59;5013009;28;20218;-73
2021/04/12 10:06:35;;;;;;;4.60;3.28;;;;;;;8.11;48.22;100421.50;5009688;28;20261;-72
2021/04/12 10:09:32;;;;;;;3.65;3.22;;;;;;;7.84;49.29;100435.84;5012108;28;20186;-73
2021/04/12 10:12:19;;;;;;;5.25;3.20;;;;;;;7.65;50.61;100428.44;5012621;28;20229;-73
2021/04/12 10:14:49;;;;;;;4.13;2.95;;;;;;;7.66;50.38;100430.16;5012627;28;20187;-73
2021/04/12 10:17:20;;;;;;;3.50;3.20;;;;;;;7.66;50.40;100426.63;5012816;28;20182;-72
2021/04/12 10:19:52;;;;;;;4.07;3.30;;;;;;;7.93;50.09;100425.69;5012044;28;20309;-72
2021/04/12 10:22:34;;;;;;;3.67;3.20;;;;;;;8.43;49.76;100422.19;5012149;28;20226;-73
2021/04/12 10:25:07;;;;;;;4.95;4.30;;;;;;;8.64;49.59;100428.59;5012513;28;20225;-72
2021/04/12 10:27:41;;;;;;;3.80;3.03;;;;;;;8.19;48.61;100425.75;5012109;28;20274;-73
2021/04/12 10:30:11;;;;;;;4.28;3.10;;;;;;;8.27;49.17;100429.88;5011860;28;20202;-70
2021/04/12 10:32:47;;;;;;;3.40;3.00;;;;;;;8.09;49.54;100426.03;5012011;28;20191;-72
2021/04/12 10:35:18;;;;;;;3.35;3.08;;;;;;;8.27;49.32;100418.28;5011729;28;20280;-74
2021/04/12 10:37:57;;;;;;;4.00;3.60;;;;;;;8.96;48.23;100416.66;5011803;28;20223;-71
2021/04/12 10:40:31;;;;;;;2.55;2.38;;;;;;;9.68;46.69;100402.13;5012130;28;20227;-71
2021/04/12 10:43:05;;;;;;;4.28;3.38;;;;;;;9.74;45.66;100407.25;5012266;28;20199;-70
2021/04/12 10:45:33;;;;;;;3.47;2.97;;;;;;;9.09;46.67;100397.34;5011265;28;20187;-70
2021/04/12 10:48:10;;;;;;;5.10;3.65;;;;;;;9.16;47.22;100409.63;5011619;28;20235;-71
2021/04/12 10:50:52;;;;;;;4.30;3.33;;;;;;;8.79;47.68;100400.28;5011997;28;20274;-71
2021/04/12 10:53:40;;;;;;;3.88;3.47;;;;;;;8.91;46.94;100402.53;5011818;28;20190;-70
2021/04/12 10:56:12;;;;;;;4.25;3.33;;;;;;;8.83;46.99;100407.31;5013430;28;20228;-71
2021/04/12 10:59:06;;;;;;;3.97;3.40;;;;;;;8.67;47.81;100401.63;5015874;28;20244;-71
2021/04/12 11:01:42;;;;;;;3.10;2.80;;;;;;;9.10;47.45;100404.50;5006244;28;20642;-70
2021/04/12 11:04:24;;;;;;;3.33;2.80;;;;;;;8.85;45.87;100405.44;5015588;28;20191;-71
2021/04/12 11:07:07;;;;;;;3.88;3.45;;;;;;;9.39;44.57;100397.97;5015669;28;20685;-72
2021/04/12 11:09:52;;;;;;;4.55;3.50;;;;;;;9.42;43.83;100389.75;5015047;28;20561;-71
2021/04/12 11:12:36;;;;;;;3.65;3.22;;;;;;;10.57;41.66;100390.22;5015467;28;20215;-71
2021/04/12 11:15:18;;;;;;;5.45;3.03;;;;;;;11.17;40.35;100386.53;5015745;28;20197;-71
2021/04/12 11:17:51;;;;;;;3.90;2.58;;;;;;;10.05;40.67;100387.13;5015326;28;20190;-71
2021/04/12 11:20:22;;;;;;;4.68;2.78;;;;;;;9.65;42.66;100383.44;5015859;28;20221;-70
2021/04/12 11:22:58;;;;;;;3.22;2.85;;;;;;;9.36;42.80;100381.94;5015149;28;20277;-70
2021/04/12 11:25:36;;;;;;;5.30;3.42;;;;;;;9.60;42.77;100391.69;5015116;28;20189;-71
2021/04/12 11:28:12;;;;;;;4.47;3.15;;;;;;;9.78;42.78;100376.59;5015326;28;20546;-70
2021/04/12 11:30:50;;;;;;;3.88;3.58;;;;;;;9.37;44.87;100389.94;5015818;28;20339;-70
2021/04/12 11:33:26;;;;;;;4.72;3.25;;;;;;;9.21;45.42;100394.19;5015055;28;20200;-71
2021/04/12 11:36:13;;;;;;;5.22;3.42;;;;;;;9.07;46.04;100393.88;5014681;28;20228;-70
2021/04/12 11:38:45;;;;;;;4.47;2.80;;;;;;;9.18;46.25;100397.03;5015693;28;20185;-71
2021/04/12 11:41:15;;;;;;;3.60;3.30;;;;;;;9.20;46.24;100400.50;5015429;28;20677;-71
2021/04/12 11:43:47;;;;;;;4.40;4.00;;;;;;;8.69;47.04;100406.97;5015351;28;20280;-70
2021/04/12 11:46:28;;;;;;;5.15;4.30;;;;;;;8.99;46.29;100404.91;5015058;28;20252;-72
2021/04/12 11:49:05;;;;;;;6.68;3.30;;;;;;;9.40;45.21;100403.25;5015204;28;20245;-72
2021/04/12 11:51:48;;;;;;;3.95;3.65;;;;;;;9.31;45.48;100400.06;5015403;28;20652;-70
2021/04/12 11:54:17;;;;;;;3.72;2.95;;;;;;;9.01;45.21;100411.09;5015578;28;20596;-70
2021/04/12 11:56:49;;;;;;;6.57;3.33;;;;;;;9.25;44.62;100408.38;5015157;28;20187;-70
2021/04/12 11:59:33;;;;;;;3.78;3.05;;;;;;;8.65;46.01;100413.38;5014916;28;20516;-71
2021/04/12 12:02:12;;;;;;;4.75;3.22;;;;;;;8.32;47.63;100419.88;5015004;28;20282;-70
2021/04/12 12:04:42;;;;;;;4.47;3.28;;;;;;;8.45;46.92;100414.09;5014904;28;20269;-71
2021/04/12 12:07:32;;;;;;;3.10;2.78;;;;;;;9.09;43.22;100413.47;5013446;28;20273;-70
2021/04/12 12:10:11;;;;;;;4.15;3.20;;;;;;;9.37;44.58;100410.59;5015264;28;20210;-72
2021/04/12 12:12:47;;;;;;;4.50;3.45;;;;;;;9.49;45.17;100407.38;5014749;28;20279;-70
2021/04/12 12:15:22;;;;;;;3.47;3.28;;;;;;;9.43;45.04;100406.75;5014553;28;20201;-70
2021/04/12 12:18:00;;;;;;;2.97;2.70;;;;;;;9.55;44.59;100417.03;5014394;28;20234;-71
2021/04/12 12:20:34;;;;;;;5.10;3.50;;;;;;;9.35;45.46;100410.63;5014388;28;20236;-70
2021/04/12 12:23:14;;;;;;;3.25;2.95;;;;;;;9.40;45.50;100407.75;5014191;28;20684;-71
2021/04/12 12:25:45;;;;;;;3.90;3.03;;;;;;;9.35;45.44;100410.63;5014209;28;20180;-70
2021/04/12 12:28:23;;;;;;;4.15;3.08;;;;;;;9.67;44.40;100411.13;5014358;28;20187;-70
2021/04/12 12:30:54;;;;;;;4.65;2.88;;;;;;;9.75;43.70;100408.13;5014019;28;20225;-70
2021/04/12 12:33:29;;;;;;;2.90;2.70;;;;;;;9.94;42.59;100406.41;5014169;28;20220;-71
2021/04/12 12:36:08;;;;;;;3.17;2.67;;;;;;;10.05;42.16;100400.56;5013922;28;20247;-71
2021/04/12 12:38:59;;;;;;;3.55;2.80;;;;;;;10.48;40.40;100406.78;5013769;28;20201;-71
2021/04/12 12:41:27;;;;;;;2.83;2.60;;;;;;;11.05;38.80;100398.78;5011743;28;20209;-71
2021/04/12 12:44:02;;;;;;;5.40;2.53;;;;;;;11.11;39.13;100394.94;5014480;28;20211;-71
2021/04/12 12:46:31;;;;;;;2.95;2.50;;;;;;;10.35;39.18;100394.81;5013980;28;20369;-71
2021/04/12 12:49:02;;;;;;;3.08;2.70;;;;;;;9.98;39.66;100399.09;5013767;28;20230;-70
2021/04/12 12:51:32;;;;;;;4.97;2.72;;;;;;;10.22;37.82;100397.13;5013728;28;20199;-71
2021/04/12 12:54:05;;;;;;;2.83;2.58;;;;;;;10.61;38.00;100397.22;5013917;28;20217;-71
2021/04/12 12:56:35;;;;;;;5.40;3.10;;;;;;;11.02;37.73;100402.50;5013689;28;20214;-72
2021/04/12 12:59:04;;;;;;;2.60;2.22;;;;;;;11.20;37.45;100394.50;5013611;28;20197;-72
2021/04/12 13:01:34;;;;;;;4.22;2.40;;;;;;;11.89;34.52;100392.00;5013302;28;20221;-71
2021/04/12 13:04:10;;;;;;;2.30;2.10;;;;;;;11.72;34.16;100399.16;5013980;28;20597;-71
2021/04/12 13:06:37;;;;;;;2.30;2.10;;;;;;;11.51;34.01;100395.69;5013436;28;20715;-71
2021/04/12 13:09:14;;;;;;;2.30;2.10;;;;;;;10.52;36.01;100392.25;5013201;28;20201;-69